Time;durP1;ratioP1;P1;durP2;ratioP2;P2;SDS_P1;SDS_P2;PMS_P1;PMS_P2;Temp;Humidity;BMP_temperature;BMP_pressure;BME280_temperature;BME280_humidity;BME280_pressure;Samples;Min_cycle;Max_cycle;Signal;HPM_P1;HPM_P2
2022/10/03 00:00:10;;;;;;;5.53;5.00;;;12.00;99.90;;;;;;5020749;28;20502;-75
2022/10/03 00:03:07;;;;;;;7.97;4.93;;;11.90;99.90;;;;;;5022303;28;20460;-74
2022/10/03 00:06:02;;;;;;;5.50;5.00;;;11.90;99.90;;;;;;5024373;28;20461;-74
2022/10/03 00:08:55;;;;;;;5.20;4.70;;;11.90;99.90;;;;;;5017619;28;20434;-74
2022/10/03 00:11:41;;;;;;;5.80;5.17;;;12.00;99.90;;;;;;5017656;28;20527;-74
2022/10/03 00:14:33;;;;;;;5.93;5.43;;;11.90;99.90;;;;;;5020811;28;20457;-74
2022/10/03 00:17:14;;;;;;;7.00;6.40;;;11.90;99.90;;;;;;5012001;28;20853;-74
2022/10/03 00:20:04;;;;;;;9.83;6.00;;;11.80;99.90;;;;;;5023277;28;20520;-74
2022/10/03 00:22:39;;;;;;;7.07;6.47;;;11.70;99.90;;;;;;5018325;28;20951;-74
2022/10/03 00:25:44;;;;;;;6.87;6.23;;;11.70;99.90;;;;;;5024664;28;20456;-74
2022/10/03 00:28:23;;;;;;;9.70;7.27;;;11.50;99.90;;;;;;5019626;28;20441;-74
2022/10/03 00:31:10;;;;;;;6.43;5.83;;;11.50;99.90;;;;;;5023936;28;20444;-74
2022/10/03 00:34:07;;;;;;;8.03;7.37;;;11.50;99.90;;;;;;5023843;28;20437;-74
2022/10/03 00:36:48;;;;;;;7.40;6.70;;;11.50;99.90;;;;;;5017302;28;20438;-74
2022/10/03 00:39:41;;;;;;;11.00;10.00;;;11.50;99.90;;;;;;5024281;28;20494;-74
2022/10/03 00:42:52;;;;;;;8.23;7.53;;;11.60;99.90;;;;;;5018114;28;20444;-74
2022/10/03 00:45:43;;;;;;;7.63;6.93;;;11.60;99.90;;;;;;5018017;28;20977;-74
2022/10/03 00:48:28;;;;;;;8.40;7.70;;;11.60;99.90;;;;;;5017381;28;20810;-74
2022/10/03 00:51:25;;;;;;;8.27;7.47;;;11.60;99.90;;;;;;5023932;28;20433;-74
2022/10/03 00:53:56;;;;;;;8.33;7.63;;;11.60;99.90;;;;;;5021173;28;20500;-74
2022/10/03 00:56:37;;;;;;;8.37;7.67;;;11.60;99.90;;;;;;5019936;28;20433;-74
2022/10/03 00:59:23;;;;;;;9.97;9.07;;;11.70;99.90;;;;;;5014530;28;20802;-74
2022/10/03 01:01:49;;;;;;;8.30;7.60;;;11.70;99.90;;;;;;5021304;28;20933;-74
2022/10/03 01:04:41;;;;;;;8.43;7.70;;;11.70;99.90;;;;;;5019362;28;20561;-74
2022/10/03 01:07:30;;;;;;;9.53;8.80;;;11.70;99.90;;;;;;5015722;28;20437;-74
2022/10/03 01:10:10;;;;;;;7.63;7.03;;;11.70;99.90;;;;;;5020011;28;20798;-74
2022/10/03 01:12:36;;;;;;;10.73;7.80;;;11.70;99.90;;;;;;5021050;28;20438;-74
2022/10/03 01:15:09;;;;;;;8.73;8.03;;;11.70;99.90;;;;;;5023916;28;20490;-74
2022/10/03 01:17:47;;;;;;;10.30;9.50;;;11.80;99.90;;;;;;5023038;28;20179;-74
2022/10/03 01:20:37;;;;;;;9.60;8.70;;;11.80;99.90;;;;;;5019499;28;20955;-74
2022/10/03 01:23:32;;;;;;;9.97;9.07;;;11.80;99.90;;;;;;5021642;28;20950;-74
2022/10/03 01:26:43;;;;;;;9.70;8.80;;;11.80;99.90;;;;;;5014783;28;20458;-74
2022/10/03 01:32:10;;;;;;;9.63;8.80;;;11.60;99.90;;;;;;5020327;28;20437;-74
2022/10/03 01:34:59;;;;;;;9.80;8.70;;;11.50;99.90;;;;;;5018858;28;20485;-74
2022/10/03 01:37:34;;;;;;;9.93;8.93;;;11.40;99.90;;;;;;5023479;28;20430;-74
2022/10/03 01:40:20;;;;;;;9.43;8.53;;;11.30;99.90;;;;;;5020130;28;20472;-74
2022/10/03 01:43:20;;;;;;;9.27;8.37;;;11.20;99.90;;;;;;5020259;28;20458;-74
2022/10/03 01:46:16;;;;;;;8.33;7.63;;;11.10;99.90;;;;;;5016084;28;20584;-74
2022/10/03 01:48:52;;;;;;;13.53;10.03;;;11.10;99.90;;;;;;5020576;28;20469;-74
2022/10/03 01:51:33;;;;;;;11.40;8.60;;;11.00;99.90;;;;;;5023332;28;20425;-74
2022/10/03 01:54:17;;;;;;;11.40;10.40;;;11.00;99.90;;;;;;5019557;28;20487;-74
2022/10/03 01:56:57;;;;;;;9.83;8.93;;;11.00;99.90;;;;;;5019995;28;20500;-74
2022/10/03 01:59:47;;;;;;;10.23;9.37;;;11.00;99.90;;;;;;5021850;28;20502;-74
2022/10/03 02:02:24;;;;;;;12.03;10.83;;;11.00;99.90;;;;;;5014945;28;20963;-74
2022/10/03 02:05:08;;;;;;;10.60;8.80;;;11.10;99.90;;;;;;5020587;28;20869;-74
2022/10/03 02:08:02;;;;;;;12.63;10.17;;;11.10;99.90;;;;;;5014840;28;20434;-74
2022/10/03 02:10:39;;;;;;;10.80;9.80;;;11.20;99.90;;;;;;5021298;28;20445;-74
2022/10/03 02:13:21;;;;;;;14.77;11.20;;;11.20;99.90;;;;;;5018954;28;20835;-74
2022/10/03 02:16:01;;;;;;;14.40;10.50;;;11.30;99.90;;;;;;5026360;28;20457;-74
2022/10/03 02:18:34;;;;;;;11.30;10.13;;;11.30;99.90;;;;;;5019334;28;20520;-74
2022/10/03 02:21:17;;;;;;;10.60;9.50;;;11.40;99.90;;;;;;5019322;28;20807;-74
2022/10/03 02:23:44;;;;;;;15.20;10.77;;;11.40;99.90;;;;;;5016859;28;20462;-74
2022/10/03 02:26:47;;;;;;;13.33;11.50;;;11.40;99.90;;;;;;5022645;28;20965;-74
2022/10/03 02:29:44;;;;;;;10.83;9.83;;;11.40;99.90;;;;;;5013363;28;20496;-74
2022/10/03 02:33:10;;;;;;;11.73;10.57;;;11.50;99.90;;;;;;5009831;28;20512;-74
2022/10/03 02:36:22;;;;;;;13.17;10.30;;;11.60;99.90;;;;;;4977944;28;20513;-74
2022/10/03 02:39:09;;;;;;;11.20;10.20;;;11.60;99.90;;;;;;5017516;28;20468;-75
2022/10/03 02:41:58;;;;;;;13.23;11.87;;;11.40;99.90;;;;;;5019745;28;20459;-74
2022/10/03 02:44:50;;;;;;;13.17;11.13;;;11.40;99.90;;;;;;5003409;28;20534;-74
2022/10/03 02:47:44;;;;;;;11.83;10.73;;;11.40;99.90;;;;;;5013710;28;20436;-74
2022/10/03 02:50:46;;;;;;;10.90;9.80;;;11.30;99.90;;;;;;4993881;28;20473;-74
2022/10/03 02:53:40;;;;;;;12.43;10.67;;;11.10;99.90;;;;;;5007087;28;20442;-74
2022/10/03 02:56:12;;;;;;;12.83;11.47;;;11.00;99.90;;;;;;5009914;28;20491;-74
2022/10/03 02:59:11;;;;;;;13.27;11.97;;;11.00;99.90;;;;;;5021372;28;20973;-74
2022/10/03 03:01:58;;;;;;;12.97;11.47;;;10.90;99.90;;;;;;5021337;28;20463;-74
2022/10/03 03:05:10;;;;;;;15.37;10.90;;;10.80;99.90;;;;;;5026154;28;20471;-74
2022/10/03 03:08:03;;;;;;;16.70;12.53;;;10.70;99.90;;;;;;5020634;28;20811;-74
2022/10/03 03:10:44;;;;;;;14.50;11.83;;;10.70;99.90;;;;;;5025920;28;20518;-74
2022/10/03 03:13:28;;;;;;;14.10;12.47;;;10.70;99.90;;;;;;5021364;28;20500;-74
2022/10/03 03:16:36;;;;;;;17.93;14.10;;;10.70;99.90;;;;;;5027945;28;20527;-74
2022/10/03 03:19:24;;;;;;;15.37;13.70;;;10.60;99.90;;;;;;5021088;28;20453;-74
2022/10/03 03:22:10;;;;;;;15.97;13.13;;;10.50;99.90;;;;;;5025065;28;20960;-74
2022/10/03 03:25:00;;;;;;;18.03;14.03;;;10.50;99.90;;;;;;5025187;28;20479;-74
2022/10/03 03:27:28;;;;;;;21.27;13.57;;;10.50;99.90;;;;;;5022408;28;20429;-74
2022/10/03 03:30:12;;;;;;;20.27;14.70;;;10.40;99.90;;;;;;5025458;28;20506;-74
2022/10/03 03:33:00;;;;;;;21.53;13.47;;;10.30;99.90;;;;;;5024807;28;20464;-74
2022/10/03 03:35:56;;;;;;;14.60;13.10;;;10.30;99.90;;;;;;5018139;28;20449;-74
2022/10/03 03:38:46;;;;;;;17.30;13.33;;;10.30;99.90;;;;;;5019178;28;20809;-74
2022/10/03 03:41:39;;;;;;;16.97;14.10;;;10.30;99.90;;;;;;5021370;28;20444;-74
2022/10/03 03:44:36;;;;;;;15.30;13.23;;;10.30;99.90;;;;;;5014315;28;20487;-74
2022/10/03 03:47:04;;;;;;;15.17;12.47;;;10.30;99.90;;;;;;5018665;28;20448;-74
2022/10/03 03:49:51;;;;;;;15.53;11.77;;;10.20;99.90;;;;;;5021611;28;20438;-74
2022/10/03 03:52:25;;;;;;;20.40;14.43;;;10.20;99.90;;;;;;5018675;28;20511;-74
2022/10/03 03:55:08;;;;;;;14.67;12.13;;;10.30;99.90;;;;;;5022078;28;21928;-74
2022/10/03 03:58:18;;;;;;;15.70;12.50;;;10.40;99.90;;;;;;5031857;28;20417;-75
2022/10/03 04:01:11;;;;;;;16.30;12.50;;;10.40;99.90;;;;;;5023583;28;20430;-75
2022/10/03 04:04:01;;;;;;;17.60;11.67;;;10.40;99.90;;;;;;5019341;28;20453;-75
2022/10/03 04:06:46;;;;;;;15.17;13.30;;;10.30;99.90;;;;;;5018944;28;20440;-75
2022/10/03 04:10:04;;;;;;;13.87;12.37;;;10.40;99.90;;;;;;5019850;28;20447;-75
2022/10/03 04:13:12;;;;;;;14.43;11.33;;;10.30;99.90;;;;;;5020870;28;20441;-75
2022/10/03 04:15:58;;;;;;;17.27;13.90;;;10.30;99.90;;;;;;5025893;28;20457;-75
2022/10/03 04:21:41;;;;;;;16.13;13.50;;;10.40;99.90;;;;;;5021103;28;20447;-75
2022/10/03 04:24:26;;;;;;;17.83;14.03;;;10.40;99.90;;;;;;5012388;28;20469;-75
2022/10/03 04:26:52;;;;;;;16.40;13.03;;;10.40;99.90;;;;;;5021130;28;20445;-75
2022/10/03 04:29:36;;;;;;;15.70;12.80;;;10.40;99.90;;;;;;5020828;28;20442;-75
2022/10/03 04:32:14;;;;;;;23.33;15.57;;;10.40;99.90;;;;;;5013382;28;20210;-75
2022/10/03 04:35:01;;;;;;;22.57;15.70;;;10.40;99.90;;;;;;5022716;28;20539;-75
2022/10/03 04:37:40;;;;;;;17.37;12.73;;;10.40;99.90;;;;;;5021130;28;20446;-75
2022/10/03 04:40:06;;;;;;;15.83;14.23;;;10.30;99.90;;;;;;5010553;28;20523;-75
2022/10/03 04:42:57;;;;;;;17.87;15.40;;;10.30;99.90;;;;;;5024561;28;21036;-75
2022/10/03 04:45:37;;;;;;;17.93;13.60;;;10.30;99.90;;;;;;5000822;28;20237;-75
2022/10/03 04:48:15;;;;;;;18.17;12.60;;;10.30;99.90;;;;;;5010575;28;20436;-75
2022/10/03 04:51:23;;;;;;;21.60;12.37;;;10.30;99.90;;;;;;5024311;28;20516;-75
2022/10/03 04:54:01;;;;;;;15.33;12.23;;;10.30;99.90;;;;;;4983952;28;20456;-75
2022/10/03 04:56:49;;;;;;;19.37;13.17;;;10.20;99.90;;;;;;5021217;28;20491;-75
2022/10/03 04:59:36;;;;;;;21.03;13.23;;;10.30;99.90;;;;;;5014936;28;20425;-74
2022/10/03 05:02:21;;;;;;;13.67;11.37;;;10.30;99.90;;;;;;5012842;28;20436;-75
2022/10/03 05:05:14;;;;;;;16.80;11.90;;;10.40;99.90;;;;;;5015827;28;21061;-75
2022/10/03 05:07:52;;;;;;;14.57;11.50;;;10.40;99.90;;;;;;5019552;28;20872;-76
2022/10/03 05:10:36;;;;;;;16.67;12.87;;;10.40;99.90;;;;;;5023771;28;20437;-75
2022/10/03 05:13:15;;;;;;;16.00;11.63;;;10.50;99.90;;;;;;5020165;28;20516;-75
2022/10/03 05:16:12;;;;;;;18.33;13.07;;;10.50;99.90;;;;;;5021144;28;20978;-75
2022/10/03 05:19:19;;;;;;;19.60;12.77;;;10.50;99.90;;;;;;5023094;28;20436;-75
2022/10/03 05:22:20;;;;;;;14.97;11.40;;;10.60;99.90;;;;;;5020577;28;20461;-75
2022/10/03 05:25:15;;;;;;;15.33;12.67;;;10.60;99.90;;;;;;5004159;28;20477;-75
2022/10/03 05:27:59;;;;;;;17.67;13.20;;;10.70;99.90;;;;;;5019868;28;20484;-76
2022/10/03 05:30:58;;;;;;;15.20;12.30;;;10.80;99.90;;;;;;5023348;28;20463;-76
2022/10/03 05:33:24;;;;;;;16.00;11.63;;;10.80;99.90;;;;;;5018235;28;20429;-75
2022/10/03 05:36:08;;;;;;;15.23;13.03;;;10.90;99.90;;;;;;5022433;28;20803;-76
2022/10/03 05:39:10;;;;;;;14.67;12.50;;;10.90;99.90;;;;;;5023064;28;20185;-75
2022/10/03 05:41:38;;;;;;;14.93;12.53;;;11.00;99.90;;;;;;5025405;28;20990;-75
2022/10/03 05:44:19;;;;;;;13.70;12.17;;;11.10;99.90;;;;;;5023152;28;20460;-75
2022/10/03 05:46:58;;;;;;;14.17;12.13;;;11.20;99.90;;;;;;5021416;28;20442;-75
2022/10/03 05:50:02;;;;;;;16.13;11.80;;;11.20;99.90;;;;;;5018189;28;20492;-75
2022/10/03 05:52:58;;;;;;;13.87;11.10;;;11.20;99.90;;;;;;5025380;28;20798;-76
2022/10/03 05:55:29;;;;;;;14.63;11.63;;;11.20;99.90;;;;;;5015956;28;20481;-75
2022/10/03 05:58:32;;;;;;;12.90;11.60;;;11.20;99.90;;;;;;5012715;28;20537;-76
2022/10/03 06:01:03;;;;;;;14.47;12.50;;;11.30;99.90;;;;;;5017359;28;20969;-75
2022/10/03 06:03:53;;;;;;;17.03;13.43;;;11.40;99.90;;;;;;5019851;28;20468;-75
2022/10/03 06:06:23;;;;;;;17.27;13.57;;;11.40;99.90;;;;;;5014647;28;20490;-76
2022/10/03 06:09:23;;;;;;;15.60;13.33;;;11.50;99.90;;;;;;5020819;28;20447;-75
2022/10/03 06:12:03;;;;;;;19.63;12.63;;;11.60;99.90;;;;;;5021211;28;20442;-75
2022/10/03 06:14:34;;;;;;;20.50;14.90;;;11.70;99.90;;;;;;5023204;28;20472;-75
2022/10/03 06:17:12;;;;;;;21.10;15.87;;;11.70;99.90;;;;;;5016333;28;20448;-75
2022/10/03 06:19:49;;;;;;;21.17;16.80;;;11.70;99.90;;;;;;5017995;28;20441;-76
2022/10/03 06:22:34;;;;;;;24.40;15.87;;;11.60;99.90;;;;;;5022726;28;20530;-75
2022/10/03 06:25:11;;;;;;;27.53;16.00;;;11.60;99.90;;;;;;5014983;28;20549;-75
2022/10/03 06:28:08;;;;;;;27.17;19.03;;;11.60;99.90;;;;;;5019182;28;20473;-76
2022/10/03 06:31:12;;;;;;;21.40;15.63;;;11.60;99.90;;;;;;5020919;28;20443;-75
2022/10/03 06:34:02;;;;;;;22.60;17.20;;;11.80;99.90;;;;;;5017500;28;20512;-76
2022/10/03 06:36:47;;;;;;;18.50;14.50;;;11.80;99.90;;;;;;5026832;28;20439;-75
2022/10/03 06:39:30;;;;;;;21.37;17.30;;;11.70;99.90;;;;;;5020273;28;20436;-76
2022/10/03 06:42:20;;;;;;;33.13;19.03;;;11.60;99.90;;;;;;5026624;28;20464;-75
2022/10/03 06:45:10;;;;;;;27.93;17.30;;;11.50;99.90;;;;;;5017960;28;20461;-75
2022/10/03 06:47:52;;;;;;;25.03;17.77;;;11.70;99.90;;;;;;5021092;28;20434;-75
2022/10/03 06:50:35;;;;;;;21.30;16.00;;;12.00;99.90;;;;;;5026311;28;20819;-76
2022/10/03 06:53:19;;;;;;;19.67;17.00;;;12.30;99.90;;;;;;5019193;28;20490;-76
2022/10/03 06:56:18;;;;;;;26.17;16.00;;;12.30;99.90;;;;;;5022105;28;20467;-75
2022/10/03 06:58:58;;;;;;;28.50;21.97;;;12.30;99.90;;;;;;5005624;28;20436;-76
2022/10/03 07:01:34;;;;;;;22.20;13.10;;;12.10;99.90;;;;;;5021963;28;20439;-76
2022/10/03 07:04:28;;;;;;;17.33;14.33;;;11.70;99.90;;;;;;5023452;28;20960;-75
2022/10/03 07:07:20;;;;;;;17.30;14.10;;;12.10;99.90;;;;;;5022720;28;20436;-75
2022/10/03 07:09:54;;;;;;;18.70;14.70;;;12.20;99.90;;;;;;5023502;28;20935;-75
2022/10/03 07:13:01;;;;;;;27.27;17.07;;;12.20;99.90;;;;;;5026120;28;20429;-75
2022/10/03 07:16:00;;;;;;;17.87;13.73;;;12.30;99.90;;;;;;5018540;28;20461;-75
2022/10/03 07:19:25;;;;;;;18.47;14.00;;;12.40;99.90;;;;;;5028499;28;20429;-76
2022/10/03 07:22:12;;;;;;;19.00;15.63;;;12.30;99.90;;;;;;4989183;28;20478;-75
2022/10/03 07:24:43;;;;;;;24.13;14.67;;;12.30;99.90;;;;;;5030994;28;20479;-75
2022/10/03 07:27:34;;;;;;;17.70;15.37;;;12.20;99.90;;;;;;5019763;28;20445;-75
2022/10/03 07:30:18;;;;;;;17.40;15.70;;;12.20;99.90;;;;;;5017320;28;20425;-75
2022/10/03 07:33:05;;;;;;;19.40;14.60;;;12.10;99.90;;;;;;5015341;28;20448;-75
2022/10/03 07:38:56;;;;;;;24.73;15.37;;;12.20;99.90;;;;;;5021275;28;20465;-75
2022/10/03 07:38:58;;;;;;;22.20;16.80;;;12.30;99.90;;;;;;5027709;28;20471;-75
2022/10/03 07:41:50;;;;;;;34.40;24.07;;;12.20;99.90;;;;;;5021556;28;20433;-75
2022/10/03 07:44:45;;;;;;;27.90;21.37;;;12.20;99.90;;;;;;5016283;28;20515;-76
2022/10/03 07:47:54;;;;;;;24.50;18.00;;;12.20;99.90;;;;;;5016799;28;20446;-75
2022/10/03 07:50:56;;;;;;;22.57;15.73;;;12.30;99.90;;;;;;5015931;28;20524;-75
2022/10/03 07:53:59;;;;;;;22.57;16.13;;;12.30;99.90;;;;;;5016193;28;20499;-75
2022/10/03 07:56:56;;;;;;;18.50;14.53;;;12.40;99.90;;;;;;5017613;28;20444;-76
2022/10/03 07:59:46;;;;;;;21.23;16.97;;;12.50;99.90;;;;;;5017190;28;20474;-75
2022/10/03 08:02:38;;;;;;;19.33;16.70;;;12.40;99.90;;;;;;5025663;28;20433;-76
2022/10/03 08:05:32;;;;;;;29.20;17.00;;;12.40;99.90;;;;;;5018000;28;20465;-75
2022/10/03 08:08:51;;;;;;;34.77;25.97;;;12.50;99.90;;;;;;5014630;28;20449;-76
2022/10/03 08:11:40;;;;;;;28.33;18.97;;;12.70;99.90;;;;;;4993793;28;20532;-75
2022/10/03 08:14:23;;;;;;;23.60;17.93;;;12.80;99.90;;;;;;5016203;28;20441;-76
2022/10/03 08:17:00;;;;;;;22.43;17.23;;;12.70;99.90;;;;;;5017066;28;21003;-76
2022/10/03 08:19:42;;;;;;;18.80;16.90;;;12.70;99.90;;;;;;5018762;28;20447;-76
2022/10/03 08:22:30;;;;;;;20.57;17.53;;;12.70;99.90;;;;;;5012274;28;20447;-75
2022/10/03 08:25:29;;;;;;;19.30;16.57;;;13.00;99.90;;;;;;5026924;28;20984;-76
2022/10/03 08:28:19;;;;;;;18.13;15.40;;;13.10;99.90;;;;;;5024853;28;20433;-76
2022/10/03 08:30:53;;;;;;;18.20;14.20;;;13.30;99.90;;;;;;5016980;28;20469;-76
2022/10/03 08:33:34;;;;;;;17.33;14.80;;;13.40;99.90;;;;;;5024126;28;20467;-76
2022/10/03 08:36:00;;;;;;;19.00;15.57;;;13.40;99.90;;;;;;5003499;28;20851;-76
2022/10/03 08:38:32;;;;;;;19.73;14.57;;;13.10;99.90;;;;;;5024557;28;20436;-76
2022/10/03 08:41:33;;;;;;;21.50;14.40;;;13.10;99.90;;;;;;5018949;28;20241;-76
2022/10/03 08:44:07;;;;;;;23.10;14.90;;;13.10;99.90;;;;;;5015769;28;20476;-75
2022/10/03 08:47:01;;;;;;;17.97;14.50;;;13.20;99.90;;;;;;5025022;28;20787;-76
2022/10/03 08:50:05;;;;;;;19.43;13.33;;;13.40;99.90;;;;;;5020645;28;20449;-76
2022/10/03 08:52:49;;;;;;;19.67;14.83;;;13.50;99.90;;;;;;5017062;28;20445;-76
2022/10/03 08:55:33;;;;;;;18.03;14.50;;;13.60;99.90;;;;;;5015814;28;20496;-76
2022/10/03 08:58:37;;;;;;;17.53;14.07;;;13.90;99.90;;;;;;5016530;28;20509;-76
2022/10/03 09:01:31;;;;;;;14.80;12.97;;;14.30;99.90;;;;;;5009213;28;20428;-76
2022/10/03 09:04:23;;;;;;;13.87;12.40;;;14.70;99.90;;;;;;5014089;28;20480;-76
2022/10/03 09:07:17;;;;;;;16.80;12.70;;;14.90;99.90;;;;;;5022216;28;20471;-76
2022/10/03 09:10:21;;;;;;;18.73;12.50;;;15.30;99.90;;;;;;5021014;28;20440;-76
2022/10/03 09:13:17;;;;;;;16.83;11.37;;;15.60;99.90;;;;;;5014333;28;20446;-76
2022/10/03 09:16:05;;;;;;;11.23;10.00;;;15.60;99.90;;;;;;5021870;28;21218;-76
2022/10/03 09:18:52;;;;;;;13.93;11.07;;;15.40;99.90;;;;;;5017504;28;20588;-76
2022/10/03 09:21:48;;;;;;;15.20;12.30;;;15.10;99.90;;;;;;5008740;28;20452;-76
2022/10/03 09:24:44;;;;;;;15.37;12.57;;;14.80;99.90;;;;;;5005344;28;20475;-76
2022/10/03 09:27:22;;;;;;;12.93;11.63;;;14.70;99.90;;;;;;5007991;28;20434;-76
2022/10/03 09:30:03;;;;;;;18.67;12.53;;;14.50;99.90;;;;;;5011926;28;20453;-76
2022/10/03 09:33:04;;;;;;;23.80;14.00;;;13.90;99.90;;;;;;5002712;28;20593;-76
2022/10/03 09:35:49;;;;;;;14.83;12.50;;;13.70;99.90;;;;;;5019634;28;20487;-76
2022/10/03 09:38:41;;;;;;;13.00;11.60;;;13.80;99.90;;;;;;5017136;28;20503;-76
2022/10/03 09:41:21;;;;;;;19.00;13.70;;;13.80;99.90;;;;;;5019987;28;20425;-76
2022/10/03 09:44:23;;;;;;;16.30;11.10;;;13.90;99.90;;;;;;5026474;28;20876;-76
2022/10/03 09:47:21;;;;;;;13.10;11.50;;;14.00;99.90;;;;;;5012345;28;20926;-76
2022/10/03 09:50:06;;;;;;;15.03;11.87;;;14.10;99.90;;;;;;5012450;28;20558;-76
2022/10/03 09:53:01;;;;;;;12.70;10.80;;;14.10;99.90;;;;;;5029974;28;20436;-76
2022/10/03 09:55:35;;;;;;;17.13;12.60;;;14.40;99.90;;;;;;5020091;28;20474;-76
2022/10/03 09:58:38;;;;;;;13.13;10.17;;;15.00;99.90;;;;;;5010047;28;20567;-76
2022/10/03 10:01:33;;;;;;;15.77;9.27;;;16.30;99.90;;;;;;5013515;28;20433;-77
2022/10/03 10:04:37;;;;;;;14.13;8.80;;;17.20;99.90;;;;;;5021845;28;20957;-77
2022/10/03 10:07:28;;;;;;;10.30;9.17;;;17.10;99.90;;;;;;5012532;28;20453;-77
2022/10/03 10:10:19;;;;;;;11.60;8.87;;;17.90;99.90;;;;;;5021097;28;20574;-77
2022/10/03 10:13:06;;;;;;;12.40;9.63;;;18.40;99.90;;;;;;5013148;28;20531;-78
2022/10/03 10:16:15;;;;;;;10.30;9.20;;;17.50;99.90;;;;;;5018527;28;20457;-78
2022/10/03 10:19:18;;;;;;;14.90;9.50;;;16.70;99.90;;;;;;5014509;28;20988;-77
2022/10/03 10:22:23;;;;;;;19.53;13.63;;;16.60;99.90;;;;;;5020683;28;20445;-78
2022/10/03 10:25:00;;;;;;;13.50;12.10;;;16.20;99.90;;;;;;5020258;28;20471;-77
2022/10/03 10:27:41;;;;;;;13.67;12.03;;;15.40;99.90;;;;;;5018421;28;20429;-77
2022/10/03 10:30:54;;;;;;;13.90;10.17;;;15.20;99.90;;;;;;5022436;28;20436;-78
2022/10/03 10:34:06;;;;;;;13.23;8.83;;;15.00;99.90;;;;;;5013616;28;20428;-77
2022/10/03 10:37:31;;;;;;;9.40;8.57;;;15.30;99.90;;;;;;5022798;28;20428;-77
2022/10/03 10:40:35;;;;;;;17.73;15.97;;;16.00;99.90;;;;;;4950933;29;20921;-76
2022/10/03 10:43:19;;;;;;;11.80;8.60;;;16.50;99.90;;;;;;4942784;29;20798;-77
2022/10/03 10:46:06;;;;;;;11.80;9.70;;;16.60;99.90;;;;;;5010471;28;22524;-77
2022/10/03 10:49:20;;;;;;;13.87;9.33;;;16.60;99.90;;;;;;5022368;28;20443;-77
2022/10/03 10:52:07;;;;;;;11.43;8.53;;;16.40;99.90;;;;;;5015620;28;20813;-77
2022/10/03 10:54:53;;;;;;;10.50;8.20;;;16.20;99.90;;;;;;5022123;28;20472;-77
2022/10/03 10:57:28;;;;;;;15.27;8.97;;;16.10;99.90;;;;;;5019287;28;20965;-76
2022/10/03 11:00:10;;;;;;;11.47;9.30;;;16.00;99.90;;;;;;5024564;28;20519;-79
2022/10/03 11:03:00;;;;;;;10.23;8.37;;;15.80;99.90;;;;;;5025217;28;20432;-78
2022/10/03 11:05:47;;;;;;;11.13;9.40;;;15.60;99.90;;;;;;5018138;28;20458;-77
2022/10/03 11:08:48;;;;;;;12.37;11.17;;;15.60;99.90;;;;;;5017670;28;20433;-80
2022/10/03 11:11:51;;;;;;;12.17;10.17;;;15.80;99.90;;;;;;5016226;28;20440;-77
2022/10/03 11:14:51;;;;;;;12.87;9.93;;;16.60;99.90;;;;;;5016779;28;20507;-76
2022/10/03 11:17:25;;;;;;;8.63;6.70;;;;;;;;;;5016154;28;20787;-77
2022/10/03 11:20:28;;;;;;;9.87;6.90;;;23.20;99.90;;;;;;5018433;28;20438;-78
2022/10/03 11:22:57;;;;;;;9.30;6.47;;;26.80;99.90;;;;;;5022720;28;20465;-77
2022/10/03 11:25:46;;;;;;;13.83;9.57;;;29.60;91.90;;;;;;5021243;28;20547;-78
2022/10/03 11:28:49;;;;;;;10.00;8.93;;;31.40;68.50;;;;;;5017600;28;20578;-80
2022/10/03 11:31:17;;;;;;;6.10;5.47;;;30.60;62.40;;;;;;5019111;28;20507;-79
2022/10/03 11:34:01;;;;;;;6.73;5.90;;;28.80;64.80;;;;;;5023677;28;20445;-77
2022/10/03 11:36:51;;;;;;;7.53;5.17;;;27.80;68.90;;;;;;5029429;28;20471;-80
2022/10/03 11:39:41;;;;;;;7.07;6.10;;;29.50;65.30;;;;;;5014587;28;20438;-78
2022/10/03 11:42:43;;;;;;;9.17;5.63;;;31.00;60.90;;;;;;5009719;28;20433;-79
2022/10/03 11:45:28;;;;;;;9.10;5.70;;;31.00;57.80;;;;;;5017713;28;20469;-79
2022/10/03 11:48:15;;;;;;;9.83;6.07;;;28.70;59.80;;;;;;5024485;28;20429;-78
2022/10/03 11:50:50;;;;;;;8.37;5.77;;;27.50;63.30;;;;;;5024262;28;20495;-78
2022/10/03 11:53:34;;;;;;;8.83;7.93;;;27.40;67.80;;;;;;5021083;28;20441;-78
2022/10/03 11:56:25;;;;;;;5.90;4.70;;;28.80;62.50;;;;;;5022301;28;20981;-78
2022/10/03 11:59:09;;;;;;;9.97;6.07;;;28.00;63.00;;;;;;5018906;28;20442;-78
2022/10/03 12:02:16;;;;;;;5.90;4.67;;;26.70;64.50;;;;;;5035973;28;20446;-80
2022/10/03 12:05:00;;;;;;;5.40;4.60;;;26.30;65.70;;;;;;5016533;28;22163;-79
2022/10/03 12:10:50;;;;;;;5.67;3.87;;;28.40;59.70;;;;;;5019396;28;20425;-80
2022/10/03 12:13:46;;;;;;;6.47;4.40;;;30.00;57.60;;;;;;5016449;28;20512;-80
2022/10/03 12:16:41;;;;;;;4.60;4.17;;;30.40;55.10;;;;;;5025939;28;20456;-81
2022/10/03 12:19:39;;;;;;;3.30;3.00;;;31.80;52.80;;;;;;5016697;28;20442;-80
2022/10/03 12:22:25;;;;;;;6.80;4.60;;;33.30;49.60;;;;;;5012862;28;20441;-80
2022/10/03 12:25:16;;;;;;;4.83;3.90;;;34.20;46.50;;;;;;5029116;28;20559;-80
2022/10/03 12:28:04;;;;;;;5.40;3.60;;;33.80;45.80;;;;;;5015991;28;20469;-80
2022/10/03 12:30:41;;;;;;;3.53;3.23;;;35.20;43.50;;;;;;5027412;28;20498;-78
2022/10/03 12:33:07;;;;;;;4.03;3.67;;;35.70;41.40;;;;;;5023689;28;20426;-81
2022/10/03 12:36:10;;;;;;;5.97;3.60;;;34.10;42.80;;;;;;5030352;28;20480;-80
2022/10/03 12:39:03;;;;;;;5.30;3.70;;;34.40;42.10;;;;;;5030287;28;20546;-81
2022/10/03 12:41:35;;;;;;;6.40;5.30;;;34.80;42.50;;;;;;5024195;28;20435;-80
2022/10/03 12:44:31;;;;;;;4.60;3.47;;;33.90;41.30;;;;;;5024017;28;20822;-78
2022/10/03 12:47:13;;;;;;;5.80;4.33;;;30.80;43.70;;;;;;5004225;28;20846;-79
2022/10/03 12:50:00;;;;;;;5.90;4.20;;;28.20;46.70;;;;;;5017997;28;20465;-78
2022/10/03 12:52:37;;;;;;;4.60;3.93;;;26.30;50.60;;;;;;5020616;28;20460;-78
2022/10/03 12:55:22;;;;;;;5.03;4.27;;;24.90;53.20;;;;;;5013444;28;20465;-78
2022/10/03 12:58:00;;;;;;;5.10;4.60;;;23.80;57.20;;;;;;5022805;28;20499;-78
2022/10/03 13:00:48;;;;;;;8.60;4.87;;;23.00;61.30;;;;;;5020408;28;20942;-79
2022/10/03 13:03:20;;;;;;;10.33;4.57;;;22.70;64.60;;;;;;5017775;28;20811;-79
2022/10/03 13:06:07;;;;;;;7.03;4.90;;;22.00;67.80;;;;;;5014008;28;20462;-78
2022/10/03 13:08:45;;;;;;;7.53;5.33;;;21.80;69.50;;;;;;5017376;28;20442;-77
2022/10/03 13:11:29;;;;;;;7.10;5.10;;;21.40;71.70;;;;;;5023969;28;20440;-79
2022/10/03 13:14:24;;;;;;;6.70;4.10;;;23.40;67.30;;;;;;5021335;28;20475;-78
2022/10/03 13:17:27;;;;;;;8.70;4.17;;;25.90;59.30;;;;;;5017210;28;20488;-78
2022/10/03 13:20:09;;;;;;;4.47;3.47;;;29.40;53.00;;;;;;5002452;28;21000;-78
2022/10/03 13:23:03;;;;;;;4.37;3.97;;;31.80;48.60;;;;;;5021529;28;20447;-78
2022/10/03 13:25:44;;;;;;;7.30;4.00;;;33.20;46.30;;;;;;5022783;28;20479;-78
2022/10/03 13:28:31;;;;;;;4.67;3.93;;;33.30;44.20;;;;;;5016760;28;20469;-82
2022/10/03 13:31:05;;;;;;;5.10;3.80;;;30.90;45.30;;;;;;5023500;28;20444;-78
2022/10/03 13:33:40;;;;;;;4.20;3.80;;;28.20;47.90;;;;;;5020652;28;20436;-78
2022/10/03 13:36:15;;;;;;;5.10;4.13;;;26.50;50.80;;;;;;5023645;28;20552;-78
2022/10/03 13:39:04;;;;;;;6.73;3.40;;;25.10;53.90;;;;;;5015967;28;20436;-78
2022/10/03 13:42:02;;;;;;;4.10;3.70;;;24.70;55.70;;;;;;5014202;28;20436;-78
2022/10/03 13:44:59;;;;;;;4.10;3.43;;;23.90;57.20;;;;;;5013241;28;20473;-78
2022/10/03 13:47:45;;;;;;;7.10;4.17;;;23.00;59.80;;;;;;5018972;28;20836;-77
2022/10/03 13:50:46;;;;;;;3.50;3.17;;;21.80;66.00;;;;;;5021866;28;20512;-77
2022/10/03 13:53:30;;;;;;;7.00;3.63;;;20.60;75.30;;;;;;5016362;28;20671;-79
2022/10/03 13:56:05;;;;;;;7.13;4.50;;;19.70;84.10;;;;;;5016841;28;20530;-77
2022/10/03 13:58:49;;;;;;;4.63;4.10;;;18.90;90.10;;;;;;5025010;28;20443;-77
2022/10/03 14:01:45;;;;;;;8.03;4.27;;;18.80;91.70;;;;;;5007268;28;20452;-77
2022/10/03 14:05:02;;;;;;;5.90;4.07;;;18.80;92.00;;;;;;5015315;28;20508;-79
2022/10/03 14:07:56;;;;;;;7.00;4.00;;;18.50;94.70;;;;;;4995813;28;20837;-78
2022/10/03 14:11:07;;;;;;;5.80;5.10;;;18.50;96.60;;;;;;5015746;28;20444;-77
2022/10/03 14:13:51;;;;;;;4.80;4.17;;;19.10;94.80;;;;;;5015325;28;20438;-77
2022/10/03 14:16:20;;;;;;;6.30;5.30;;;18.90;94.50;;;;;;5018362;28;20503;-77
2022/10/03 14:19:20;;;;;;;4.80;4.33;;;19.10;93.50;;;;;;5019941;28;20461;-77
2022/10/03 14:22:03;;;;;;;7.50;4.97;;;19.30;93.20;;;;;;5011607;28;20474;-77
2022/10/03 14:24:46;;;;;;;5.30;4.20;;;19.40;92.00;;;;;;5022972;28;20579;-79
2022/10/03 14:27:14;;;;;;;4.60;4.20;;;19.30;92.90;;;;;;5034889;28;20437;-77
2022/10/03 14:30:05;;;;;;;8.60;4.40;;;19.30;92.40;;;;;;5019830;28;20441;-77
2022/10/03 14:32:58;;;;;;;3.80;3.40;;;19.20;93.20;;;;;;5023300;28;20433;-77